createdAt,value
2019-04-28T00:01:54.350Z,93.00
2019-04-28T00:04:24.072Z,93.00
2019-04-28T00:06:53.658Z,93.10
2019-04-28T00:09:23.455Z,93.30
2019-04-28T00:11:53.247Z,93.60
2019-04-28T00:14:23.160Z,93.40
2019-04-28T00:16:52.797Z,93.60
2019-04-28T00:19:24.087Z,93.00
2019-04-28T00:22:04.114Z,92.20
2019-04-28T00:24:34.559Z,92.40
2019-04-28T00:27:05.046Z,92.00
2019-04-28T00:29:40.794Z,92.70
2019-04-28T00:32:07.306Z,93.20
2019-04-28T00:34:41.203Z,93.40
2019-04-28T00:37:12.807Z,93.10
2019-04-28T00:39:42.514Z,92.60
2019-04-28T00:42:12.262Z,92.70
2019-04-28T00:44:43.393Z,92.40
2019-04-28T00:47:14.494Z,92.70
2019-04-28T00:49:48.078Z,93.00
2019-04-28T00:52:19.256Z,92.60
2019-04-28T00:54:49.650Z,92.20
2019-04-28T00:57:21.022Z,91.70
2019-04-28T00:59:57.554Z,92.00
2019-04-28T01:02:23.848Z,92.20
2019-04-28T01:04:54.596Z,92.70
2019-04-28T01:07:24.334Z,91.30
2019-04-28T01:09:54.346Z,91.70
2019-04-28T01:12:23.212Z,90.40
2019-04-28T01:14:54.977Z,91.40
2019-04-28T01:17:26.625Z,92.10
2019-04-28T01:20:00.697Z,90.80
2019-04-28T01:22:30.356Z,90.80
2019-04-28T01:25:00.026Z,91.00
2019-04-28T01:27:32.838Z,90.10
2019-04-28T01:30:09.161Z,90.40
2019-04-28T01:32:37.406Z,89.10
2019-04-28T01:35:07.143Z,90.90
2019-04-28T01:37:36.828Z,90.10
2019-04-28T01:40:07.142Z,90.10
2019-04-28T01:42:36.745Z,88.50
2019-04-28T01:45:07.413Z,90.00
2019-04-28T01:47:37.146Z,89.90
2019-04-28T01:50:07.215Z,89.20
2019-04-28T01:52:36.944Z,87.90
2019-04-28T01:55:07.293Z,87.50
2019-04-28T01:57:36.858Z,89.40
2019-04-28T02:00:22.301Z,87.40
2019-04-28T02:02:44.774Z,88.00
2019-04-28T02:05:15.256Z,84.80
2019-04-28T02:07:44.819Z,84.20
2019-04-28T02:10:14.567Z,84.30
2019-04-28T02:12:44.214Z,83.60
2019-04-28T02:15:13.879Z,82.60
2019-04-28T02:17:43.526Z,83.10
2019-04-28T02:20:15.332Z,83.10
2019-04-28T02:22:46.703Z,83.10
2019-04-28T02:25:16.398Z,83.80
2019-04-28T02:27:45.972Z,84.90
2019-04-28T02:30:15.697Z,84.20
2019-04-28T02:32:45.351Z,80.90
2019-04-28T02:35:15.044Z,82.20
2019-04-28T02:37:44.607Z,81.50
2019-04-28T02:40:14.238Z,82.60
2019-04-28T02:42:43.882Z,85.20
2019-04-28T02:45:16.566Z,84.80
2019-04-28T02:47:46.244Z,84.10
2019-04-28T02:50:26.342Z,80.30
2019-04-28T02:52:57.721Z,79.30
2019-04-28T02:55:27.268Z,80.10
2019-04-28T02:57:57.858Z,75.80
2019-04-28T03:00:27.566Z,76.30
2019-04-28T03:02:57.319Z,72.60
2019-04-28T03:05:27.020Z,73.60
2019-04-28T03:07:56.645Z,77.90
2019-04-28T03:10:26.279Z,74.10
2019-04-28T03:12:56.074Z,75.10
2019-04-28T03:15:25.687Z,76.40
2019-04-28T03:17:55.332Z,81.50
2019-04-28T03:20:25.046Z,80.00
2019-04-28T03:22:55.006Z,79.60
2019-04-28T03:25:30.213Z,79.60
2019-04-28T03:28:06.759Z,81.20
2019-04-28T03:30:44.336Z,81.10
2019-04-28T03:33:25.239Z,78.10
2019-04-28T03:35:53.863Z,80.60
2019-04-28T03:38:23.858Z,80.80
2019-04-28T03:40:53.598Z,83.10
2019-04-28T03:43:23.300Z,84.20
2019-04-28T03:46:03.174Z,86.00
2019-04-28T03:48:33.677Z,86.90
2019-04-28T03:51:02.814Z,87.90
2019-04-28T03:53:32.386Z,86.20
2019-04-28T03:56:01.972Z,82.90
2019-04-28T03:58:31.631Z,84.30
2019-04-28T04:01:03.127Z,87.60
2019-04-28T04:03:32.507Z,89.10
2019-04-28T04:06:02.149Z,89.30
2019-04-28T04:08:31.678Z,88.10
2019-04-28T04:11:02.970Z,87.40
2019-04-28T04:13:34.269Z,89.90
2019-04-28T04:16:17.662Z,90.10
2019-04-28T04:18:52.977Z,90.10
2019-04-28T04:21:21.369Z,90.30
2019-04-28T04:23:51.168Z,90.50
2019-04-28T04:26:21.553Z,89.30
2019-04-28T04:28:51.773Z,87.30
2019-04-28T04:31:21.546Z,84.80
2019-04-28T04:33:51.199Z,85.90
2019-04-28T04:36:21.320Z,89.80
2019-04-28T04:38:51.621Z,91.00
2019-04-28T04:41:21.672Z,91.50
2019-04-28T04:43:52.466Z,91.50
2019-04-28T04:46:23.988Z,91.80
2019-04-28T04:48:53.670Z,91.10
2019-04-28T04:51:23.379Z,90.10
2019-04-28T04:53:53.042Z,91.60
2019-04-28T04:56:22.759Z,92.20
2019-04-28T04:58:52.409Z,92.50
2019-04-28T05:01:23.710Z,92.20
2019-04-28T05:04:07.217Z,92.50
2019-04-28T05:06:42.686Z,92.70
2019-04-28T05:09:12.329Z,93.00
2019-04-28T05:11:41.906Z,93.10
2019-04-28T05:14:12.084Z,93.10
2019-04-28T05:16:41.849Z,93.20
2019-04-28T05:19:12.516Z,93.30
2019-04-28T05:21:42.160Z,93.40
2019-04-28T05:24:20.108Z,91.60
2019-04-28T05:26:51.579Z,91.40
2019-04-28T05:29:26.496Z,88.60
2019-04-28T05:31:54.807Z,91.10
2019-04-28T05:34:24.609Z,91.40
2019-04-28T05:36:54.322Z,91.80
2019-04-28T05:39:23.993Z,92.40
2019-04-28T05:41:53.711Z,92.80
2019-04-28T05:44:23.985Z,93.00
2019-04-28T05:46:53.555Z,92.90
2019-04-28T05:49:27.316Z,92.00
2019-04-28T05:52:09.640Z,92.00
2019-04-28T05:54:55.646Z,92.00
2019-04-28T05:57:30.578Z,90.10
2019-04-28T06:00:10.868Z,88.30
2019-04-28T06:02:54.208Z,84.40
2019-04-28T06:05:13.664Z,89.00
2019-04-28T06:08:01.101Z,90.10
2019-04-28T06:10:30.789Z,90.00
2019-04-28T06:13:00.489Z,89.70
2019-04-28T06:15:29.998Z,90.50
2019-04-28T06:18:00.186Z,89.40
2019-04-28T06:20:30.380Z,87.90
2019-04-28T06:22:59.975Z,85.90
2019-04-28T06:25:29.612Z,87.10
2019-04-28T06:27:59.327Z,87.60
2019-04-28T06:30:29.060Z,73.90
2019-04-28T06:33:07.722Z,68.60
2019-04-28T06:35:29.879Z,65.40
2019-04-28T06:37:59.547Z,66.50
2019-04-28T06:40:29.099Z,65.30
2019-04-28T06:42:58.807Z,64.90
2019-04-28T06:45:29.454Z,68.70
2019-04-28T06:47:59.195Z,67.40
2019-04-28T06:50:33.022Z,65.00
2019-04-28T06:53:03.094Z,66.50
2019-04-28T06:55:35.277Z,62.40
2019-04-28T06:58:04.971Z,62.10
2019-04-28T07:00:34.674Z,66.00
2019-04-28T07:03:16.994Z,67.00
2019-04-28T07:05:40.392Z,63.20
2019-04-28T07:08:10.085Z,63.80
2019-04-28T07:10:39.804Z,57.50
2019-04-28T07:13:09.597Z,54.00
2019-04-28T07:15:39.523Z,58.80
2019-04-28T07:18:15.308Z,64.50
2019-04-28T07:21:01.778Z,69.60
2019-04-28T07:23:34.056Z,83.30
2019-04-28T07:26:11.277Z,86.10
2019-04-28T07:28:42.693Z,90.10
2019-04-28T07:34:37.383Z,94.50
2019-04-28T07:40:10.248Z,97.70
2019-04-28T07:42:45.620Z,97.70
2019-04-28T07:45:18.537Z,97.80
2019-04-28T07:47:49.852Z,97.30
2019-04-28T07:53:28.632Z,98.50
2019-04-28T07:59:27.488Z,99.20
2019-04-28T08:05:46.835Z,98.60
2019-04-28T08:08:20.352Z,98.30
2019-04-28T08:10:52.587Z,98.20
2019-04-28T08:13:23.353Z,98.50
2019-04-28T08:15:54.905Z,99.00
2019-04-28T08:19:21.394Z,99.30
2019-04-28T08:21:07.040Z,99.60
2019-04-28T08:23:46.947Z,99.40
2019-04-28T08:26:12.780Z,99.30
2019-04-28T08:28:46.772Z,98.20
2019-04-28T08:31:21.831Z,98.10
2019-04-28T08:34:02.570Z,98.20
2019-04-28T08:36:27.312Z,97.70
2019-04-28T08:39:00.824Z,97.60
2019-04-28T08:41:32.144Z,97.10
2019-04-28T08:44:04.746Z,97.80
2019-04-28T08:46:37.014Z,97.70
2019-04-28T08:49:14.479Z,97.10
2019-04-28T08:52:03.661Z,97.10
2019-04-28T08:54:35.033Z,97.20
2019-04-28T08:57:07.644Z,97.30
2019-04-28T08:59:37.417Z,96.90
2019-04-28T09:02:09.358Z,96.40
2019-04-28T09:04:41.623Z,95.00
2019-04-28T09:07:14.568Z,94.70
2019-04-28T09:09:43.004Z,95.00
2019-04-28T09:12:14.215Z,95.80
2019-04-28T09:14:49.896Z,95.90
2019-04-28T09:17:19.695Z,96.80
2019-04-28T09:19:51.927Z,95.70
2019-04-28T09:22:21.690Z,94.70
2019-04-28T09:24:51.481Z,95.30
2019-04-28T09:27:22.190Z,94.50
2019-04-28T09:29:52.065Z,91.00
2019-04-28T09:32:21.867Z,94.40
2019-04-28T09:34:53.311Z,94.20
2019-04-28T09:37:23.123Z,94.30
2019-04-28T09:39:53.665Z,93.70
2019-04-28T09:42:30.765Z,92.50
2019-04-28T09:45:18.671Z,93.20
2019-04-28T09:47:48.606Z,92.50
2019-04-28T09:50:17.598Z,83.10
2019-04-28T09:52:48.744Z,80.10
2019-04-28T09:55:19.643Z,81.40
2019-04-28T09:57:49.407Z,83.10
2019-04-28T10:00:20.167Z,90.00
2019-04-28T10:02:49.908Z,88.80
2019-04-28T10:05:20.605Z,87.10
2019-04-28T10:07:50.362Z,76.90
2019-04-28T10:10:20.199Z,78.70
2019-04-28T10:12:49.051Z,84.60
2019-04-28T10:15:18.717Z,84.50
2019-04-28T10:17:48.435Z,83.50
2019-04-28T10:20:18.568Z,82.20
2019-04-28T10:22:48.364Z,83.30
2019-04-28T10:25:20.988Z,85.30
2019-04-28T10:27:49.534Z,82.00
2019-04-28T10:30:19.375Z,73.70
2019-04-28T10:32:49.108Z,80.40
2019-04-28T10:35:17.995Z,79.50
2019-04-28T10:37:47.702Z,77.30
2019-04-28T10:40:22.095Z,71.40
2019-04-28T10:42:51.807Z,75.50
2019-04-28T10:45:23.178Z,72.40
2019-04-28T10:47:52.967Z,77.00
2019-04-28T10:50:22.648Z,77.30
2019-04-28T10:52:55.264Z,75.80
2019-04-28T10:55:25.140Z,70.20
2019-04-28T10:57:54.703Z,80.20
2019-04-28T11:00:27.639Z,80.30
2019-04-28T11:02:57.400Z,76.10
2019-04-28T11:05:28.724Z,74.60
2019-04-28T11:07:58.507Z,73.00
2019-04-28T11:10:27.464Z,73.70
2019-04-28T11:12:57.100Z,69.20
2019-04-28T11:15:28.455Z,73.00
2019-04-28T11:17:58.098Z,70.30
2019-04-28T11:20:28.024Z,77.40
2019-04-28T11:22:56.894Z,65.60
2019-04-28T11:25:26.555Z,74.10
2019-04-28T11:27:56.227Z,71.10
2019-04-28T11:30:28.575Z,70.20
2019-04-28T11:33:16.535Z,70.20
2019-04-28T11:35:47.714Z,67.90
2019-04-28T11:38:17.351Z,68.20
2019-04-28T11:40:47.153Z,62.70
2019-04-28T11:43:16.758Z,72.40
2019-04-28T11:45:46.425Z,68.10
2019-04-28T11:48:16.079Z,62.40
2019-04-28T11:50:46.899Z,64.20
2019-04-28T11:53:15.767Z,65.00
2019-04-28T11:55:45.646Z,59.00
2019-04-28T11:58:15.332Z,55.90
2019-04-28T12:00:44.220Z,57.30
2019-04-28T12:03:13.931Z,60.00
2019-04-28T12:05:44.430Z,62.80
2019-04-28T12:08:14.134Z,55.90
2019-04-28T12:10:52.557Z,61.60
2019-04-28T12:13:31.707Z,54.00
2019-04-28T12:16:11.647Z,56.00
2019-04-28T12:18:59.337Z,59.90
2019-04-28T12:21:29.030Z,55.40
2019-04-28T12:23:58.031Z,54.90
2019-04-28T12:26:27.762Z,54.90
2019-04-28T12:28:56.641Z,51.70
2019-04-28T12:31:26.367Z,53.70
2019-04-28T12:33:55.980Z,57.50
2019-04-28T12:36:25.652Z,50.40
2019-04-28T12:38:55.403Z,48.80
2019-04-28T12:41:24.291Z,52.00
2019-04-28T12:43:53.919Z,48.00
2019-04-28T12:46:23.560Z,55.00
2019-04-28T12:48:54.076Z,51.70
2019-04-28T12:51:23.832Z,53.40
2019-04-28T12:53:54.370Z,52.00
2019-04-28T12:56:23.975Z,47.50
2019-04-28T12:58:54.541Z,53.40
2019-04-28T13:01:25.646Z,50.00
2019-04-28T13:04:13.027Z,51.30
2019-04-28T13:06:44.374Z,52.50
2019-04-28T13:09:14.556Z,51.40
2019-04-28T13:11:44.384Z,54.60
2019-04-28T13:14:14.037Z,56.20
2019-04-28T13:16:42.967Z,52.60
2019-04-28T13:19:12.603Z,50.80
2019-04-28T13:21:41.549Z,49.40
2019-04-28T13:24:11.186Z,44.90
2019-04-28T13:26:40.844Z,44.60
2019-04-28T13:29:10.340Z,48.40
2019-04-28T13:31:40.052Z,50.10
2019-04-28T13:34:11.317Z,57.20
2019-04-28T13:36:41.090Z,55.20
2019-04-28T13:39:30.022Z,61.00
2019-04-28T13:41:59.783Z,55.80
2019-04-28T13:44:46.560Z,51.70
2019-04-28T13:47:16.174Z,48.00
2019-04-28T13:49:59.202Z,58.30
2019-04-28T13:52:28.918Z,62.40
2019-04-28T13:55:00.240Z,65.10
2019-04-28T13:57:29.866Z,61.10
2019-04-28T14:00:01.110Z,58.60
2019-04-28T14:02:35.643Z,52.70
2019-04-28T14:05:22.872Z,53.60
2019-04-28T14:07:52.569Z,53.70
2019-04-28T14:10:22.193Z,50.40
2019-04-28T14:12:51.910Z,50.10
2019-04-28T14:15:21.568Z,46.80
2019-04-28T14:17:50.480Z,45.80
2019-04-28T14:20:20.194Z,45.20
2019-04-28T14:22:49.051Z,48.90
2019-04-28T14:25:18.699Z,46.50
2019-04-28T14:27:47.549Z,48.00
2019-04-28T14:30:18.276Z,46.40
2019-04-28T14:32:47.984Z,47.10
2019-04-28T14:35:17.507Z,48.40
2019-04-28T14:37:47.258Z,49.70
2019-04-28T14:40:17.255Z,48.50
2019-04-28T14:42:46.032Z,50.30
2019-04-28T14:45:16.024Z,51.60
2019-04-28T14:47:45.831Z,52.90
2019-04-28T14:50:14.898Z,48.80
2019-04-28T14:52:44.359Z,45.50
2019-04-28T14:55:13.262Z,46.40
2019-04-28T14:57:42.842Z,44.30
2019-04-28T15:00:13.515Z,52.20
2019-04-28T15:02:47.823Z,41.80
2019-04-28T15:05:21.739Z,38.20
2019-04-28T15:08:09.222Z,38.10
2019-04-28T15:10:49.626Z,25.90
2019-04-28T15:13:20.330Z,23.50
2019-04-28T15:15:50.040Z,26.40
2019-04-28T15:18:20.943Z,24.40
2019-04-28T15:20:50.687Z,24.20
2019-04-28T15:23:21.400Z,25.00
2019-04-28T15:25:50.903Z,23.90
2019-04-28T15:28:20.703Z,21.70
2019-04-28T15:30:50.375Z,22.50
2019-04-28T15:33:20.151Z,28.10
2019-04-28T15:35:49.815Z,21.60
2019-04-28T15:38:32.304Z,21.40
2019-04-28T15:41:01.991Z,25.50
2019-04-28T15:43:34.549Z,26.90
2019-04-28T15:46:04.899Z,26.50
2019-04-28T15:48:34.612Z,28.10
2019-04-28T15:51:05.796Z,29.20
2019-04-28T15:53:36.732Z,30.00
2019-04-28T15:56:13.807Z,36.10
2019-04-28T15:58:43.463Z,34.10
2019-04-28T16:01:13.161Z,38.10
2019-04-28T16:03:43.283Z,41.20
2019-04-28T16:06:13.003Z,42.50
2019-04-28T16:08:42.780Z,46.10
2019-04-28T16:11:12.503Z,51.30
2019-04-28T16:13:41.326Z,46.30
2019-04-28T16:16:10.867Z,49.00
2019-04-28T16:18:40.472Z,52.70
2019-04-28T16:21:09.256Z,49.40
2019-04-28T16:23:38.876Z,50.50
2019-04-28T16:26:07.686Z,55.20
2019-04-28T16:28:37.236Z,50.60
2019-04-28T16:31:06.141Z,51.60
2019-04-28T16:33:35.787Z,48.60
2019-04-28T16:36:05.476Z,52.70
2019-04-28T16:38:34.288Z,53.40
2019-04-28T16:41:04.312Z,54.80
2019-04-28T16:43:37.315Z,54.30
2019-04-28T16:46:07.090Z,55.70
2019-04-28T16:48:35.961Z,55.20
2019-04-28T16:51:06.526Z,55.50
2019-04-28T16:53:36.126Z,59.70
2019-04-28T16:56:13.301Z,58.70
2019-04-28T16:58:44.530Z,59.70
2019-04-28T17:01:21.929Z,58.90
2019-04-28T17:03:51.756Z,61.30
2019-04-28T17:06:20.609Z,61.40
2019-04-28T17:08:50.174Z,65.30
2019-04-28T17:11:19.876Z,65.90
2019-04-28T17:13:49.552Z,66.60
2019-04-28T17:16:19.333Z,62.20
2019-04-28T17:18:48.988Z,61.20
2019-04-28T17:21:18.723Z,68.40
2019-04-28T17:23:48.350Z,67.60
2019-04-28T17:26:18.068Z,70.50
2019-04-28T17:28:47.798Z,65.70
2019-04-28T17:31:17.435Z,66.70
2019-04-28T17:33:47.087Z,71.20
2019-04-28T17:36:16.802Z,73.10
2019-04-28T17:38:46.578Z,76.40
2019-04-28T17:41:16.283Z,73.60
2019-04-28T17:43:45.927Z,78.60
2019-04-28T17:46:15.680Z,74.90
2019-04-28T17:48:58.892Z,74.40
2019-04-28T17:51:28.599Z,76.30
2019-04-28T17:53:58.322Z,77.20
2019-04-28T17:56:27.959Z,80.10
2019-04-28T17:58:57.558Z,82.30
2019-04-28T18:01:37.577Z,75.60
2019-04-28T18:04:08.965Z,81.40
2019-04-28T18:06:48.962Z,74.60
2019-04-28T18:09:19.719Z,78.40
2019-04-28T18:11:49.515Z,75.10
2019-04-28T18:14:19.243Z,72.20
2019-04-28T18:16:56.523Z,73.40
2019-04-28T18:19:27.051Z,72.20
2019-04-28T18:21:56.687Z,79.70
2019-04-28T18:24:26.403Z,78.60
2019-04-28T18:26:56.062Z,84.00
2019-04-28T18:29:25.697Z,84.90
2019-04-28T18:31:56.993Z,82.80
2019-04-28T18:34:37.443Z,76.50
2019-04-28T18:37:20.898Z,76.60
2019-04-28T18:40:03.999Z,83.30
2019-04-28T18:42:38.462Z,84.90
2019-04-28T18:45:09.375Z,87.50
2019-04-28T18:47:38.955Z,88.80
2019-04-28T18:50:08.749Z,89.40
2019-04-28T18:52:38.562Z,90.30
2019-04-28T18:55:08.335Z,86.30
2019-04-28T18:57:37.939Z,84.10
2019-04-28T19:00:08.113Z,88.10
2019-04-28T19:02:39.949Z,82.20
2019-04-28T19:05:10.586Z,79.10
2019-04-28T19:10:40.237Z,87.60
2019-04-28T19:13:22.926Z,83.80
2019-04-28T19:15:54.309Z,85.00
2019-04-28T19:18:34.375Z,89.30
2019-04-28T19:21:04.304Z,85.50
2019-04-28T19:23:33.238Z,90.00
2019-04-28T19:26:02.932Z,88.90
2019-04-28T19:28:32.644Z,91.00
2019-04-28T19:31:02.280Z,90.40
2019-04-28T19:33:32.024Z,91.00
2019-04-28T19:36:01.724Z,90.80
2019-04-28T19:38:31.363Z,90.00
2019-04-28T19:41:00.994Z,90.10
2019-04-28T19:43:30.808Z,85.70
2019-04-28T19:46:02.067Z,87.20
2019-04-28T19:48:31.795Z,89.50
2019-04-28T19:51:01.620Z,90.60
2019-04-28T19:53:32.491Z,90.90
2019-04-28T19:56:14.395Z,90.30
2019-04-28T19:58:45.935Z,85.70
2019-04-28T20:01:17.248Z,89.50
2019-04-28T20:03:46.971Z,86.20
2019-04-28T20:06:16.626Z,83.30
2019-04-28T20:08:46.358Z,89.10
2019-04-28T20:11:16.150Z,83.70
2019-04-28T20:13:46.000Z,84.00
2019-04-28T20:16:15.774Z,76.10
2019-04-28T20:18:48.622Z,72.60
2019-04-28T20:21:16.799Z,68.20
2019-04-28T20:23:46.516Z,64.40
2019-04-28T20:26:19.501Z,64.00
2019-04-28T20:28:50.970Z,65.90
2019-04-28T20:31:20.747Z,64.20
2019-04-28T20:33:50.394Z,65.50
2019-04-28T20:36:27.258Z,65.50
2019-04-28T20:38:58.615Z,68.10
2019-04-28T20:44:30.184Z,72.30
2019-04-28T20:46:59.948Z,72.10
2019-04-28T20:49:32.358Z,70.00
2019-04-28T20:52:09.377Z,75.40
2019-04-28T20:54:41.982Z,80.50
2019-04-28T20:57:13.518Z,82.80
2019-04-28T20:59:50.949Z,82.80
2019-04-28T21:02:20.703Z,85.30
2019-04-28T21:04:51.194Z,84.60
2019-04-28T21:07:22.273Z,85.30
2019-04-28T21:09:56.362Z,83.40
2019-04-28T21:12:31.444Z,86.50
2019-04-28T21:15:05.152Z,89.60
2019-04-28T21:17:35.048Z,90.20
2019-04-28T21:20:17.589Z,85.50
2019-04-28T21:22:54.857Z,84.50
2019-04-28T21:25:26.825Z,89.40
2019-04-28T21:27:58.960Z,91.10
2019-04-28T21:30:29.281Z,81.80
2019-04-28T21:33:03.465Z,90.70
2019-04-28T21:35:36.080Z,90.40
2019-04-28T21:38:10.237Z,91.00
2019-04-28T21:40:41.314Z,90.90
2019-04-28T21:43:13.114Z,89.50
2019-04-28T21:45:59.463Z,91.30
2019-04-28T21:48:33.217Z,91.10
2019-04-28T21:51:02.759Z,92.40
2019-04-28T21:53:32.325Z,92.30
2019-04-28T21:56:03.059Z,93.60
2019-04-28T21:58:33.712Z,95.10
2019-04-28T22:01:04.273Z,94.80
2019-04-28T22:03:36.738Z,93.80
2019-04-28T22:06:06.470Z,94.70
2019-04-28T22:08:36.171Z,96.00
2019-04-28T22:11:05.792Z,96.60
2019-04-28T22:13:35.555Z,96.80
2019-04-28T22:16:05.481Z,97.20
2019-04-28T22:18:36.711Z,97.60
2019-04-28T22:21:06.314Z,97.80
2019-04-28T22:23:40.206Z,98.00
2019-04-28T22:26:11.455Z,97.80
2019-04-28T22:28:42.609Z,97.80
2019-04-28T22:31:13.426Z,97.90
2019-04-28T22:33:43.135Z,97.90
2019-04-28T22:36:12.768Z,98.20
2019-04-28T22:38:42.316Z,98.00
2019-04-28T22:41:11.946Z,98.10
2019-04-28T22:43:41.518Z,98.30
2019-04-28T22:46:11.080Z,98.30
2019-04-28T22:48:40.696Z,98.20
2019-04-28T22:51:10.371Z,98.10
2019-04-28T22:53:40.081Z,98.00
2019-04-28T22:56:11.329Z,97.60
2019-04-28T22:58:45.140Z,98.00
2019-04-28T23:01:24.989Z,98.10
2019-04-28T23:04:08.198Z,97.80
2019-04-28T23:06:38.914Z,96.90
2019-04-28T23:09:11.399Z,97.20
2019-04-28T23:11:43.779Z,97.80
2019-04-28T23:14:13.375Z,98.10
2019-04-28T23:16:43.072Z,98.20
2019-04-28T23:19:14.382Z,98.10
2019-04-28T23:21:48.364Z,98.10
2019-04-28T23:24:17.941Z,98.20
2019-04-28T23:26:47.620Z,98.50
2019-04-28T23:29:17.298Z,98.80
2019-04-28T23:31:47.020Z,98.50
2019-04-28T23:34:18.191Z,97.80
2019-04-28T23:36:47.953Z,97.70
2019-04-28T23:39:20.118Z,98.40
2019-04-28T23:41:57.268Z,98.60
2019-04-28T23:44:27.962Z,97.30
2019-04-28T23:46:58.935Z,97.80
2019-04-28T23:49:30.113Z,97.50
2019-04-28T23:52:04.313Z,97.20
2019-04-28T23:54:35.707Z,97.40
2019-04-28T23:57:07.400Z,98.00
2019-04-28T23:59:38.476Z,98.20
